Time;durP1;ratioP1;P1;durP2;ratioP2;P2;SDS_P1;SDS_P2;PMS_P1;PMS_P2;Temp;Humidity;BMP_temperature;BMP_pressure;BME280_temperature;BME280_humidity;BME280_pressure;Samples;Min_cycle;Max_cycle;Signal;HPM_P1;HPM_P2
2023/05/13 00:04:22;;;;;;;7.85;3.35;;;13.10;99.90;;;;;;12478409;28;20064;-37
2023/05/13 00:10:24;;;;;;;7.43;3.90;;;13.20;99.90;;;;;;12479273;28;20061;-38
2023/05/13 00:16:27;;;;;;;5.40;3.47;;;13.20;99.90;;;;;;12467941;28;20402;-37
2023/05/13 00:22:29;;;;;;;4.97;3.50;;;13.50;99.90;;;;;;12487236;28;20494;-37
2023/05/13 00:28:31;;;;;;;7.15;3.50;;;13.60;99.90;;;;;;12487194;28;20143;-37
2023/05/13 00:34:33;;;;;;;6.10;3.75;;;13.50;99.90;;;;;;12489009;28;20053;-37
2023/05/13 00:40:38;;;;;;;8.38;3.72;;;13.50;99.90;;;;;;12470246;28;20081;-37
2023/05/13 00:46:41;;;;;;;5.85;3.58;;;13.40;99.90;;;;;;12492669;28;20045;-37
2023/05/13 00:52:43;;;;;;;6.10;3.70;;;13.30;99.90;;;;;;12499673;28;20092;-37
2023/05/13 00:58:45;;;;;;;6.65;3.60;;;13.40;99.90;;;;;;12483774;28;20175;-38
2023/05/13 01:05:01;;;;;;;5.70;3.80;;;13.50;99.90;;;;;;12493114;28;20058;-37
2023/05/13 01:11:14;;;;;;;5.13;3.67;;;13.60;99.90;;;;;;12502095;28;20045;-37
2023/05/13 01:17:31;;;;;;;8.18;4.05;;;13.30;99.90;;;;;;12489283;28;20049;-37
2023/05/13 01:23:33;;;;;;;8.02;4.20;;;13.10;99.90;;;;;;12493683;28;20506;-37
2023/05/13 01:29:36;;;;;;;7.10;3.70;;;12.80;99.90;;;;;;12499595;28;20512;-37
2023/05/13 01:35:38;;;;;;;7.97;3.78;;;12.70;99.90;;;;;;12503652;28;20041;-37
2023/05/13 01:41:40;;;;;;;8.38;3.90;;;12.60;99.90;;;;;;12503404;28;20056;-36
2023/05/13 01:47:42;;;;;;;5.45;3.47;;;12.70;99.90;;;;;;12500331;28;20080;-37
2023/05/13 01:53:45;;;;;;;8.73;4.13;;;12.70;99.90;;;;;;12495844;28;20404;-37
2023/05/13 01:59:46;;;;;;;11.65;4.18;;;12.60;99.90;;;;;;12489762;28;20041;-38
2023/05/13 02:05:48;;;;;;;12.75;4.60;;;12.60;99.90;;;;;;12481436;28;20103;-37
2023/05/13 02:11:50;;;;;;;6.00;4.13;;;12.60;99.90;;;;;;12483731;28;20041;-37
2023/05/13 02:17:53;;;;;;;7.40;4.13;;;12.80;99.90;;;;;;12474814;28;20049;-37
2023/05/13 02:23:55;;;;;;;6.10;4.45;;;13.00;99.90;;;;;;12492235;28;20103;-37
2023/05/13 02:29:57;;;;;;;8.57;4.53;;;13.10;99.90;;;;;;12489549;28;20421;-37
2023/05/13 02:35:59;;;;;;;10.30;4.93;;;12.90;99.90;;;;;;12480531;28;20123;-37
2023/05/13 02:42:01;;;;;;;5.72;4.32;;;12.80;99.90;;;;;;12487075;28;20050;-37
2023/05/13 02:48:03;;;;;;;7.90;4.63;;;13.00;99.90;;;;;;12487452;28;20508;-37
2023/05/13 02:54:06;;;;;;;8.20;4.32;;;12.90;99.90;;;;;;12486990;28;20085;-37
2023/05/13 03:00:08;;;;;;;9.77;4.60;;;12.50;99.90;;;;;;12482360;28;20041;-37
2023/05/13 03:06:10;;;;;;;8.05;4.55;;;12.30;99.90;;;;;;12483100;28;20041;-37
2023/05/13 03:12:12;;;;;;;8.65;4.70;;;12.20;99.90;;;;;;12475782;28;20041;-37
2023/05/13 03:18:14;;;;;;;7.82;4.25;;;12.30;99.90;;;;;;12462899;28;20072;-37
2023/05/13 03:24:16;;;;;;;10.00;4.75;;;12.20;99.90;;;;;;12490101;28;20041;-37
2023/05/13 03:30:20;;;;;;;12.10;5.25;;;12.30;99.90;;;;;;12485814;28;20453;-36
2023/05/13 03:36:23;;;;;;;5.80;4.13;;;12.10;99.90;;;;;;12489150;28;20056;-36
2023/05/13 03:42:25;;;;;;;6.72;4.63;;;11.70;99.90;;;;;;12497221;28;20076;-36
2023/05/13 03:48:27;;;;;;;5.72;4.25;;;11.80;99.90;;;;;;12501736;28;20083;-36
2023/05/13 03:54:29;;;;;;;8.43;4.50;;;11.90;99.90;;;;;;12493969;28;20183;-36
2023/05/13 04:00:30;;;;;;;7.15;4.30;;;12.10;99.90;;;;;;12486434;28;20050;-36
2023/05/13 04:06:32;;;;;;;7.28;4.55;;;12.10;99.90;;;;;;12478273;28;20395;-36
2023/05/13 04:12:34;;;;;;;9.07;4.63;;;12.00;99.90;;;;;;12453595;28;20056;-36
2023/05/13 04:18:36;;;;;;;8.20;4.10;;;11.70;99.90;;;;;;12473112;28;20130;-36
2023/05/13 04:24:38;;;;;;;7.53;4.20;;;11.70;99.90;;;;;;12484173;28;20098;-36
2023/05/13 04:30:40;;;;;;;8.30;4.57;;;11.90;99.90;;;;;;12482895;28;20057;-36
2023/05/13 04:36:42;;;;;;;8.45;4.55;;;12.30;99.90;;;;;;12474497;28;20494;-35
2023/05/13 04:42:44;;;;;;;6.47;4.47;;;12.20;99.90;;;;;;12489781;28;20069;-36
2023/05/13 04:48:47;;;;;;;8.00;4.55;;;13.00;99.90;;;;;;12469742;28;20045;-36
2023/05/13 04:54:49;;;;;;;4.97;3.70;;;13.60;99.90;;;;;;12491637;28;20417;-36
2023/05/13 05:00:51;;;;;;;11.02;3.97;;;14.40;99.90;;;;;;12482881;28;20046;-36
2023/05/13 05:06:53;;;;;;;7.18;4.00;;;15.10;99.90;;;;;;12485663;28;20053;-36
2023/05/13 05:12:56;;;;;;;8.68;3.92;;;14.80;99.90;;;;;;12483863;28;20195;-36
2023/05/13 05:18:58;;;;;;;6.00;4.00;;;15.00;99.90;;;;;;12492830;28;20110;-37
2023/05/13 05:25:00;;;;;;;5.32;3.65;;;15.30;99.90;;;;;;12473739;28;20394;-37
2023/05/13 05:31:05;;;;;;;6.47;3.60;;;14.80;99.90;;;;;;12479500;28;20052;-36
2023/05/13 05:37:07;;;;;;;7.80;4.10;;;14.20;99.90;;;;;;12505939;28;20060;-36
2023/05/13 05:43:12;;;;;;;6.00;3.65;;;14.30;99.90;;;;;;12488772;28;20060;-36
2023/05/13 05:49:14;;;;;;;9.43;3.90;;;13.90;99.90;;;;;;12500001;28;20037;-36
2023/05/13 05:55:16;;;;;;;5.00;3.97;;;14.30;99.90;;;;;;12498096;28;20049;-36
2023/05/13 06:01:18;;;;;;;7.90;4.07;;;14.60;99.90;;;;;;12492477;28;20066;-35
2023/05/13 06:07:20;;;;;;;8.57;4.15;;;15.10;99.90;;;;;;12498363;28;20405;-36
2023/05/13 06:13:22;;;;;;;8.65;4.00;;;14.00;99.90;;;;;;12503349;28;20511;-36
2023/05/13 06:19:24;;;;;;;5.78;4.18;;;14.80;99.90;;;;;;12484693;28;20057;-37
2023/05/13 06:25:26;;;;;;;9.05;4.55;;;14.70;99.90;;;;;;12480563;28;20041;-37
2023/05/13 06:31:28;;;;;;;6.22;4.03;;;14.80;99.90;;;;;;12473360;28;20128;-36
2023/05/13 06:37:29;;;;;;;6.47;3.60;;;15.60;99.90;;;;;;12480603;28;20061;-36
2023/05/13 06:43:33;;;;;;;8.80;4.53;;;16.10;99.90;;;;;;12491042;28;20141;-36
2023/05/13 06:49:35;;;;;;;7.20;4.50;;;17.10;99.90;;;;;;12465492;28;20053;-36
2023/05/13 06:55:40;;;;;;;10.32;4.45;;;16.70;99.90;;;;;;12492223;28;20631;-37
2023/05/13 07:01:42;;;;;;;6.03;3.53;;;16.40;99.90;;;;;;12485735;28;20486;-37
2023/05/13 07:07:44;;;;;;;9.05;4.00;;;16.80;99.90;;;;;;12480727;28;20053;-37
2023/05/13 07:13:46;;;;;;;7.50;3.85;;;16.70;99.90;;;;;;12470142;28;20386;-37
2023/05/13 07:19:48;;;;;;;6.10;3.63;;;17.00;99.90;;;;;;12447382;28;20621;-37
2023/05/13 07:25:51;;;;;;;6.88;4.00;;;17.20;99.90;;;;;;12480810;28;20480;-37
2023/05/13 07:31:53;;;;;;;8.15;4.43;;;16.60;99.90;;;;;;12478794;28;20033;-37
2023/05/13 07:37:55;;;;;;;8.18;4.00;;;16.00;99.90;;;;;;12480977;28;20050;-38
2023/05/13 07:43:56;;;;;;;10.70;4.18;;;16.20;99.90;;;;;;12479341;28;20053;-37
2023/05/13 07:49:59;;;;;;;6.57;4.47;;;16.40;99.90;;;;;;12442230;28;20037;-37
2023/05/13 07:56:01;;;;;;;9.48;3.97;;;16.50;99.90;;;;;;12452595;28;20096;-37
2023/05/13 08:02:03;;;;;;;6.82;3.70;;;16.70;99.90;;;;;;12476100;28;20065;-37
2023/05/13 08:08:05;;;;;;;6.95;3.60;;;16.90;99.90;;;;;;12483963;28;20452;-37
2023/05/13 08:14:07;;;;;;;8.88;4.00;;;17.10;99.90;;;;;;12443215;28;20157;-36
2023/05/13 08:20:10;;;;;;;9.30;3.83;;;17.40;99.90;;;;;;12474515;28;20049;-38
2023/05/13 08:26:12;;;;;;;5.87;3.43;;;17.70;99.90;;;;;;12466800;28;20046;-38
2023/05/13 08:32:14;;;;;;;7.15;3.88;;;17.80;99.90;;;;;;12493618;28;20071;-37
2023/05/13 08:38:16;;;;;;;6.85;3.65;;;18.00;99.90;;;;;;12441594;28;20467;-38
2023/05/13 08:44:21;;;;;;;6.28;3.80;;;18.20;99.90;;;;;;12474304;28;20045;-38
2023/05/13 08:50:24;;;;;;;10.48;4.20;;;18.10;99.90;;;;;;12470318;28;20046;-38
2023/05/13 08:56:27;;;;;;;7.20;3.60;;;18.50;99.90;;;;;;12492905;28;20581;-36
2023/05/13 09:02:30;;;;;;;8.07;3.58;;;18.70;99.90;;;;;;12466465;28;20413;-37
2023/05/13 09:08:33;;;;;;;6.27;3.13;;;18.80;99.90;;;;;;12471986;28;20053;-37
2023/05/13 09:14:37;;;;;;;5.97;3.60;;;18.80;99.90;;;;;;12457431;28;20064;-37
2023/05/13 09:20:41;;;;;;;8.18;3.55;;;19.30;99.90;;;;;;12481188;28;20161;-37
2023/05/13 09:26:44;;;;;;;12.27;3.60;;;19.50;99.90;;;;;;12476530;28;20042;-37
2023/05/13 09:33:15;;;;;;;6.55;3.53;;;19.90;99.90;;;;;;12492275;28;20468;-36
2023/05/13 09:39:17;;;;;;;8.57;4.03;;;19.60;99.90;;;;;;12467485;28;20049;-36
2023/05/13 09:45:19;;;;;;;7.60;3.53;;;19.80;99.90;;;;;;12465323;28;20075;-37
2023/05/13 09:51:26;;;;;;;9.55;3.53;;;19.90;99.90;;;;;;12484900;28;20052;-37
2023/05/13 09:57:27;;;;;;;6.40;3.28;;;20.10;99.90;;;;;;12490084;28;20135;-37
2023/05/13 10:03:30;;;;;;;6.82;3.33;;;20.30;99.90;;;;;;12478588;28;20158;-37
2023/05/13 10:09:35;;;;;;;7.07;3.20;;;20.40;99.90;;;;;;12481043;28;20395;-37
2023/05/13 10:15:47;;;;;;;8.35;3.67;;;20.50;99.90;;;;;;12472478;28;20068;-38
2023/05/13 10:21:53;;;;;;;8.45;3.25;;;21.00;99.90;;;;;;12491393;28;20393;-37
2023/05/13 10:27:56;;;;;;;9.32;3.80;;;20.80;99.90;;;;;;12492657;28;20085;-37
2023/05/13 10:33:58;;;;;;;7.03;3.33;;;20.90;99.90;;;;;;12488067;28;20045;-36
2023/05/13 10:40:40;;;;;;;10.73;3.85;;;20.50;99.90;;;;;;12488417;28;20501;-37
2023/05/13 10:46:42;;;;;;;9.55;4.25;;;21.00;99.90;;;;;;12467791;28;20045;-36
2023/05/13 10:52:47;;;;;;;6.65;3.40;;;21.30;99.90;;;;;;12490499;28;20052;-36
2023/05/13 10:59:02;;;;;;;7.15;3.60;;;20.90;99.90;;;;;;12464301;28;20097;-36
2023/05/13 11:05:04;;;;;;;6.20;3.80;;;20.90;99.90;;;;;;12475324;28;20410;-39
2023/05/13 11:11:16;;;;;;;10.23;3.83;;;21.00;99.90;;;;;;12490983;28;20124;-37
2023/05/13 11:17:19;;;;;;;7.65;3.70;;;21.10;99.90;;;;;;12487508;28;20390;-36
2023/05/13 11:23:21;;;;;;;;;;;21.50;99.90;;;;;;12479593;28;20057;-36
2023/05/13 11:29:34;;;;;;;10.05;3.38;;;21.50;99.90;;;;;;12472430;28;19921;-36
2023/05/13 11:35:36;;;;;;;4.70;2.95;;;21.20;99.90;;;;;;12479913;28;20091;-38
2023/05/13 11:41:41;;;;;;;7.80;2.80;;;21.40;99.90;;;;;;12484759;28;20172;-37
2023/05/13 11:47:43;;;;;;;6.35;3.38;;;21.90;99.90;;;;;;12479578;28;20048;-38
2023/05/13 11:53:45;;;;;;;4.93;2.80;;;21.80;99.90;;;;;;12479819;28;20045;-37
2023/05/13 11:59:51;;;;;;;9.68;2.92;;;21.80;99.90;;;;;;12478728;28;20672;-37
2023/05/13 12:06:05;;;;;;;6.40;2.60;;;21.90;99.90;;;;;;12479255;28;20054;-38
2023/05/13 12:12:07;;;;;;;6.35;3.30;;;21.50;99.90;;;;;;12477666;28;20516;-37
2023/05/13 12:18:09;;;;;;;10.18;2.80;;;20.80;99.90;;;;;;12449729;28;20106;-37
2023/05/13 12:24:19;;;;;;;6.63;2.92;;;21.00;99.90;;;;;;12480898;28;20052;-37
2023/05/13 12:30:20;;;;;;;6.47;3.00;;;21.40;99.90;;;;;;12479282;28;20050;-37
2023/05/13 12:36:34;;;;;;;9.70;3.38;;;20.40;99.90;;;;;;12486929;28;20045;-37
2023/05/13 12:42:37;;;;;;;8.13;3.60;;;20.30;99.90;;;;;;12470814;28;20509;-37
2023/05/13 12:48:38;;;;;;;5.38;3.45;;;21.40;99.90;;;;;;12475050;28;20045;-37
2023/05/13 12:54:40;;;;;;;8.20;3.40;;;20.50;99.90;;;;;;12472658;28;20068;-37
2023/05/13 13:00:42;;;;;;;6.57;3.33;;;21.00;99.90;;;;;;12464745;28;20128;-40
2023/05/13 13:06:44;;;;;;;7.35;3.10;;;21.30;99.90;;;;;;12475511;28;20054;-37
2023/05/13 13:12:46;;;;;;;6.43;2.90;;;21.10;99.90;;;;;;12472292;28;20128;-37
2023/05/13 13:18:49;;;;;;;7.55;3.10;;;21.30;99.90;;;;;;12472457;28;20073;-37
2023/05/13 13:24:53;;;;;;;7.32;2.80;;;21.20;99.90;;;;;;12475756;28;20046;-37
2023/05/13 13:30:55;;;;;;;7.18;2.58;;;21.40;99.90;;;;;;12473301;28;20049;-37
2023/05/13 13:36:57;;;;;;;5.35;2.80;;;21.40;99.90;;;;;;12474888;28;20045;-37
2023/05/13 13:42:59;;;;;;;7.03;2.47;;;21.30;99.90;;;;;;12473710;28;20410;-37
2023/05/13 13:49:01;;;;;;;8.45;3.13;;;21.40;99.90;;;;;;12480411;28;20045;-37
2023/05/13 13:55:14;;;;;;;7.57;3.40;;;20.70;99.90;;;;;;12478452;28;20496;-36
2023/05/13 14:01:18;;;;;;;5.15;2.63;;;20.10;99.90;;;;;;12474002;28;20482;-36
2023/05/13 14:07:20;;;;;;;5.47;2.40;;;20.10;99.90;;;;;;12483258;28;20064;-36
2023/05/13 14:13:22;;;;;;;8.00;2.30;;;20.70;99.90;;;;;;12475271;28;20079;-36
2023/05/13 14:19:24;;;;;;;9.20;2.55;;;21.00;99.90;;;;;;12484086;28;20049;-37
2023/05/13 14:25:27;;;;;;;5.53;2.40;;;21.20;99.90;;;;;;12501296;28;20057;-37
2023/05/13 14:31:29;;;;;;;4.72;2.17;;;21.20;99.90;;;;;;12487372;28;20601;-37
2023/05/13 14:37:31;;;;;;;6.38;2.50;;;21.40;99.90;;;;;;12495085;28;20160;-36
2023/05/13 14:43:33;;;;;;;8.25;2.40;;;20.90;99.90;;;;;;12483183;28;20050;-36
2023/05/13 14:49:35;;;;;;;6.50;2.30;;;20.20;99.90;;;;;;12483249;28;20046;-36
2023/05/13 14:55:37;;;;;;;8.13;2.65;;;19.80;99.90;;;;;;12481933;28;20061;-36
2023/05/13 15:01:39;;;;;;;4.45;2.75;;;20.10;99.90;;;;;;12467737;28;20524;-37
2023/05/13 15:07:41;;;;;;;7.28;2.42;;;20.70;99.90;;;;;;12454786;28;20049;-37
2023/05/13 15:13:42;;;;;;;3.80;2.42;;;21.00;99.90;;;;;;12432608;28;20046;-36
2023/05/13 15:19:45;;;;;;;5.35;2.50;;;20.70;99.90;;;;;;12445190;28;20545;-36
2023/05/13 15:25:47;;;;;;;4.80;2.42;;;20.10;99.90;;;;;;12454121;28;20128;-36
2023/05/13 15:31:49;;;;;;;5.68;2.60;;;19.80;99.90;;;;;;12434967;28;20108;-36
2023/05/13 15:37:51;;;;;;;10.60;2.72;;;19.90;99.90;;;;;;12429887;28;20085;-36
2023/05/13 15:43:53;;;;;;;9.88;2.28;;;20.60;99.90;;;;;;12445596;28;20045;-40
2023/05/13 15:49:55;;;;;;;10.38;2.40;;;20.60;99.90;;;;;;12436455;28;20128;-42
2023/05/13 15:55:57;;;;;;;6.90;2.40;;;20.00;99.90;;;;;;12412027;28;20070;-39
2023/05/13 16:01:59;;;;;;;7.35;2.67;;;19.70;99.90;;;;;;12427111;28;20112;-39
2023/05/13 16:08:01;;;;;;;7.00;3.00;;;19.60;99.90;;;;;;12459103;28;20469;-39
2023/05/13 16:14:03;;;;;;;6.75;2.20;;;19.40;99.90;;;;;;12483939;28;20383;-39
2023/05/13 16:20:06;;;;;;;5.40;2.53;;;19.30;99.90;;;;;;12492814;28;20486;-39
2023/05/13 16:26:11;;;;;;;4.95;2.08;;;19.40;99.90;;;;;;12435755;28;20041;-38
2023/05/13 16:32:13;;;;;;;5.25;2.33;;;19.50;99.90;;;;;;12490454;28;20529;-38
2023/05/13 16:38:15;;;;;;;4.82;2.10;;;20.00;99.90;;;;;;12485325;28;20045;-40
2023/05/13 16:44:17;;;;;;;6.50;2.33;;;20.30;99.90;;;;;;12457056;28;20052;-40
2023/05/13 16:50:19;;;;;;;7.00;2.15;;;20.20;99.90;;;;;;12475256;28;20081;-39
2023/05/13 16:56:21;;;;;;;5.70;2.15;;;20.50;99.90;;;;;;12481958;28;20049;-40
2023/05/13 17:02:23;;;;;;;3.85;2.25;;;20.50;99.90;;;;;;12479489;28;20049;-40
2023/05/13 17:08:25;;;;;;;4.82;2.05;;;20.50;99.90;;;;;;12476524;28;20410;-39
2023/05/13 17:14:27;;;;;;;3.72;1.80;;;20.50;99.90;;;;;;12443265;28;20609;-39
2023/05/13 17:20:29;;;;;;;3.10;1.67;;;20.40;99.90;;;;;;12451453;28;20481;-39
2023/05/13 17:26:31;;;;;;;4.18;1.70;;;20.40;99.90;;;;;;12467214;28;22120;-39
2023/05/13 17:32:34;;;;;;;4.88;1.50;;;20.30;99.90;;;;;;12454780;28;20513;-40
2023/05/13 17:38:37;;;;;;;4.17;1.47;;;20.60;99.90;;;;;;12461299;28;20809;-40
2023/05/13 17:44:38;;;;;;;4.45;1.88;;;20.60;99.90;;;;;;12471845;28;20893;-40
2023/05/13 17:50:40;;;;;;;6.25;1.60;;;20.60;99.90;;;;;;12473154;28;21081;-40
2023/05/13 17:56:42;;;;;;;5.30;1.67;;;20.90;99.90;;;;;;12472681;28;20407;-40
2023/05/13 18:02:44;;;;;;;5.30;1.73;;;20.80;99.90;;;;;;12468698;28;20050;-39
2023/05/13 18:08:46;;;;;;;4.07;1.85;;;20.40;99.90;;;;;;12430500;28;20398;-39
2023/05/13 18:14:48;;;;;;;3.67;1.73;;;19.70;99.90;;;;;;12428946;28;20140;-40
2023/05/13 18:20:50;;;;;;;3.95;1.75;;;19.40;99.90;;;;;;12434820;28;20111;-41
2023/05/13 18:26:51;;;;;;;8.18;1.90;;;19.20;99.90;;;;;;12438619;28;20479;-39
2023/05/13 18:32:53;;;;;;;5.07;1.80;;;19.00;99.90;;;;;;12448531;28;20164;-39
2023/05/13 18:38:55;;;;;;;3.78;1.80;;;18.80;99.90;;;;;;12450266;28;20072;-39
2023/05/13 18:44:57;;;;;;;3.35;1.70;;;18.60;99.90;;;;;;12437642;28;20145;-39
2023/05/13 18:50:59;;;;;;;4.15;1.90;;;18.40;99.90;;;;;;12441923;28;20514;-38
2023/05/13 18:57:01;;;;;;;6.00;1.77;;;18.20;99.90;;;;;;12445056;28;20081;-39
2023/05/13 19:03:03;;;;;;;6.07;2.17;;;18.20;99.90;;;;;;12433246;28;20308;-40
2023/05/13 19:09:05;;;;;;;5.55;1.95;;;18.10;99.90;;;;;;12480259;28;20056;-40
2023/05/13 19:15:07;;;;;;;5.57;2.30;;;18.00;99.90;;;;;;12481480;28;20037;-39
2023/05/13 19:21:14;;;;;;;5.45;1.90;;;17.80;99.90;;;;;;12485601;28;20099;-39
2023/05/13 19:27:25;;;;;;;7.30;1.90;;;17.70;99.90;;;;;;12485265;28;20180;-40
2023/05/13 19:33:37;;;;;;;4.47;2.15;;;17.60;99.90;;;;;;12483624;28;20069;-38
2023/05/13 19:39:47;;;;;;;11.23;5.45;;;17.50;99.90;;;;;;12480846;28;20049;-39
2023/05/13 19:45:51;;;;;;;6.43;4.10;;;17.60;99.90;;;;;;12476903;28;20132;-39
2023/05/13 19:51:54;;;;;;;6.63;3.87;;;17.60;99.90;;;;;;12483138;28;20490;-39
2023/05/13 19:57:57;;;;;;;4.63;2.53;;;17.30;99.90;;;;;;12491164;28;20049;-39
2023/05/13 20:04:00;;;;;;;5.95;2.40;;;16.90;99.90;;;;;;12464868;28;20077;-39
2023/05/13 20:10:05;;;;;;;5.20;2.78;;;16.60;99.90;;;;;;12494990;28;20053;-40
2023/05/13 20:16:08;;;;;;;6.85;2.95;;;16.40;99.90;;;;;;12456099;28;20057;-40
2023/05/13 20:22:11;;;;;;;3.87;2.40;;;16.20;99.90;;;;;;12476077;28;20497;-38
2023/05/13 20:28:14;;;;;;;6.55;2.47;;;16.10;99.90;;;;;;12469692;28;20052;-40
2023/05/13 20:34:17;;;;;;;6.73;2.77;;;15.90;99.90;;;;;;12467950;28;20048;-38
2023/05/13 20:40:22;;;;;;;3.78;2.38;;;15.70;99.90;;;;;;12486846;28;20300;-40
2023/05/13 20:46:26;;;;;;;5.13;2.08;;;15.80;99.90;;;;;;12481610;28;20088;-39
2023/05/13 20:52:30;;;;;;;2.63;2.03;;;15.70;99.90;;;;;;12492040;28;20056;-39
2023/05/13 20:58:33;;;;;;;4.33;2.27;;;15.50;99.90;;;;;;12473033;28;20056;-39
2023/05/13 21:04:35;;;;;;;3.60;2.40;;;15.40;99.90;;;;;;12491621;28;20053;-39
2023/05/13 21:10:39;;;;;;;6.65;2.20;;;15.40;99.90;;;;;;12495084;28;20521;-38
2023/05/13 21:16:43;;;;;;;7.18;2.67;;;15.20;99.90;;;;;;12503698;28;20721;-39
2023/05/13 21:22:46;;;;;;;5.50;2.50;;;15.10;99.90;;;;;;12488025;28;20045;-39
2023/05/13 21:28:50;;;;;;;3.08;2.08;;;14.70;99.90;;;;;;12482033;28;20141;-39
2023/05/13 21:34:55;;;;;;;4.83;2.73;;;15.00;99.90;;;;;;12491243;28;20133;-39
2023/05/13 21:41:01;;;;;;;5.78;2.80;;;14.10;99.90;;;;;;12478591;28;20062;-39
2023/05/13 21:47:04;;;;;;;4.47;2.63;;;14.10;99.90;;;;;;12479352;28;20414;-40
2023/05/13 21:53:07;;;;;;;7.30;2.70;;;14.50;99.90;;;;;;12495654;28;20416;-39
2023/05/13 21:59:11;;;;;;;5.07;2.90;;;14.60;99.90;;;;;;12506575;28;20481;-39
2023/05/13 22:05:13;;;;;;;4.53;2.90;;;14.60;99.90;;;;;;12501017;28;20183;-38
2023/05/13 22:11:17;;;;;;;7.03;2.80;;;14.60;99.90;;;;;;12489447;28;20068;-39
2023/05/13 22:17:21;;;;;;;7.55;2.63;;;14.50;99.90;;;;;;12490093;28;20064;-40
2023/05/13 22:23:27;;;;;;;3.97;2.53;;;14.10;99.90;;;;;;12489343;28;20053;-39
2023/05/13 22:29:30;;;;;;;4.97;2.95;;;14.30;99.90;;;;;;12505919;28;20049;-38
2023/05/13 22:35:35;;;;;;;5.70;2.95;;;14.10;99.90;;;;;;12495016;28;20038;-38
2023/05/13 22:41:38;;;;;;;6.55;3.10;;;13.90;99.90;;;;;;12492540;28;20896;-39
2023/05/13 22:47:42;;;;;;;4.15;2.30;;;13.80;99.90;;;;;;12477858;28;20053;-39
2023/05/13 22:53:44;;;;;;;6.07;2.78;;;14.20;99.90;;;;;;12492122;28;20041;-38
2023/05/13 22:59:48;;;;;;;5.33;2.70;;;13.90;99.90;;;;;;12479309;28;20406;-38
2023/05/13 23:05:51;;;;;;;5.05;3.10;;;14.00;99.90;;;;;;12471633;28;20060;-39
2023/05/13 23:11:57;;;;;;;8.70;3.23;;;14.00;99.90;;;;;;12492587;28;20045;-37
2023/05/13 23:18:00;;;;;;;8.63;2.88;;;13.80;99.90;;;;;;12472869;28;20103;-38
2023/05/13 23:24:03;;;;;;;7.13;2.97;;;13.70;99.90;;;;;;12496211;28;20046;-38
2023/05/13 23:30:07;;;;;;;6.85;3.50;;;13.50;99.90;;;;;;12470631;28;20037;-38
2023/05/13 23:36:11;;;;;;;4.50;3.25;;;14.00;99.90;;;;;;12443797;28;20049;-39
2023/05/13 23:42:16;;;;;;;5.60;3.03;;;13.80;99.90;;;;;;12462188;28;20049;-38
2023/05/13 23:48:18;;;;;;;;;;;13.60;99.90;;;;;;12485119;28;20091;-38
2023/05/13 23:54:22;;;;;;;7.00;2.83;;;13.50;99.90;;;;;;12473182;28;20307;-39
